sensor_id;sensor_type;location;lat;lon;timestamp;P1;durP1;ratioP1;P2;durP2;ratioP2
29196;SDS011;62796;42.654;23.316;2023-04-25T00:02:09;4.20;;;3.40;;
29196;SDS011;62796;42.654;23.316;2023-04-25T00:04:34;4.03;;;3.60;;
29196;SDS011;62796;42.654;23.316;2023-04-25T00:07:00;3.50;;;3.20;;
29196;SDS011;62796;42.654;23.316;2023-04-25T00:09:28;5.03;;;3.30;;
29196;SDS011;62796;42.654;23.316;2023-04-25T00:11:54;3.65;;;3.20;;
29196;SDS011;62796;42.654;23.316;2023-04-25T00:14:19;5.78;;;3.60;;
29196;SDS011;62796;42.654;23.316;2023-04-25T00:16:45;3.92;;;3.30;;
29196;SDS011;62796;42.654;23.316;2023-04-25T00:19:10;3.80;;;3.47;;
29196;SDS011;62796;42.654;23.316;2023-04-25T00:21:36;4.75;;;3.58;;
29196;SDS011;62796;42.654;23.316;2023-04-25T00:24:05;6.32;;;3.97;;
29196;SDS011;62796;42.654;23.316;2023-04-25T00:26:32;6.35;;;4.00;;
29196;SDS011;62796;42.654;23.316;2023-04-25T00:28:58;4.00;;;3.60;;
29196;SDS011;62796;42.654;23.316;2023-04-25T00:31:24;4.30;;;3.33;;
29196;SDS011;62796;42.654;23.316;2023-04-25T00:33:49;5.10;;;4.45;;
29196;SDS011;62796;42.654;23.316;2023-04-25T00:36:15;5.97;;;5.05;;
29196;SDS011;62796;42.654;23.316;2023-04-25T00:38:40;7.88;;;5.15;;
29196;SDS011;62796;42.654;23.316;2023-04-25T00:41:06;8.57;;;5.70;;
29196;SDS011;62796;42.654;23.316;2023-04-25T00:43:32;5.90;;;5.30;;
29196;SDS011;62796;42.654;23.316;2023-04-25T00:45:59;7.72;;;5.75;;
29196;SDS011;62796;42.654;23.316;2023-04-25T00:48:25;9.65;;;6.60;;
29196;SDS011;62796;42.654;23.316;2023-04-25T00:50:51;7.28;;;6.55;;
29196;SDS011;62796;42.654;23.316;2023-04-25T00:53:19;7.47;;;6.38;;
29196;SDS011;62796;42.654;23.316;2023-04-25T00:55:46;8.30;;;5.97;;
29196;SDS011;62796;42.654;23.316;2023-04-25T00:58:11;7.35;;;6.25;;
29196;SDS011;62796;42.654;23.316;2023-04-25T01:00:37;9.02;;;6.65;;
29196;SDS011;62796;42.654;23.316;2023-04-25T01:03:03;7.80;;;6.53;;
29196;SDS011;62796;42.654;23.316;2023-04-25T01:05:28;7.43;;;6.63;;
29196;SDS011;62796;42.654;23.316;2023-04-25T01:07:54;10.63;;;7.03;;
29196;SDS011;62796;42.654;23.316;2023-04-25T01:10:20;8.80;;;7.63;;
29196;SDS011;62796;42.654;23.316;2023-04-25T01:12:45;8.32;;;6.75;;
29196;SDS011;62796;42.654;23.316;2023-04-25T01:15:11;11.38;;;7.10;;
29196;SDS011;62796;42.654;23.316;2023-04-25T01:17:37;7.75;;;6.82;;
29196;SDS011;62796;42.654;23.316;2023-04-25T01:20:03;9.80;;;7.07;;
29196;SDS011;62796;42.654;23.316;2023-04-25T01:22:30;8.27;;;6.55;;
29196;SDS011;62796;42.654;23.316;2023-04-25T01:24:56;8.82;;;7.05;;
29196;SDS011;62796;42.654;23.316;2023-04-25T01:27:22;9.27;;;7.20;;
29196;SDS011;62796;42.654;23.316;2023-04-25T01:29:47;8.77;;;7.15;;
29196;SDS011;62796;42.654;23.316;2023-04-25T01:32:14;9.05;;;7.50;;
29196;SDS011;62796;42.654;23.316;2023-04-25T01:34:40;10.68;;;7.38;;
29196;SDS011;62796;42.654;23.316;2023-04-25T01:37:06;10.02;;;6.95;;
29196;SDS011;62796;42.654;23.316;2023-04-25T01:39:31;10.40;;;7.00;;
29196;SDS011;62796;42.654;23.316;2023-04-25T01:41:58;10.55;;;7.53;;
29196;SDS011;62796;42.654;23.316;2023-04-25T01:44:24;9.32;;;7.55;;
29196;SDS011;62796;42.654;23.316;2023-04-25T01:46:50;8.48;;;7.53;;
29196;SDS011;62796;42.654;23.316;2023-04-25T01:49:16;7.25;;;6.30;;
29196;SDS011;62796;42.654;23.316;2023-04-25T01:51:41;6.80;;;5.20;;
29196;SDS011;62796;42.654;23.316;2023-04-25T01:54:08;5.47;;;4.80;;
29196;SDS011;62796;42.654;23.316;2023-04-25T01:56:36;6.50;;;4.97;;
29196;SDS011;62796;42.654;23.316;2023-04-25T01:59:03;7.50;;;5.15;;
29196;SDS011;62796;42.654;23.316;2023-04-25T02:01:30;5.50;;;4.60;;
29196;SDS011;62796;42.654;23.316;2023-04-25T02:03:56;7.47;;;5.55;;
29196;SDS011;62796;42.654;23.316;2023-04-25T02:06:21;6.63;;;5.25;;
29196;SDS011;62796;42.654;23.316;2023-04-25T02:08:47;7.93;;;6.15;;
29196;SDS011;62796;42.654;23.316;2023-04-25T02:11:12;8.85;;;6.00;;
29196;SDS011;62796;42.654;23.316;2023-04-25T02:13:38;7.30;;;5.97;;
29196;SDS011;62796;42.654;23.316;2023-04-25T02:16:03;9.02;;;5.85;;
29196;SDS011;62796;42.654;23.316;2023-04-25T02:18:29;8.20;;;5.95;;
29196;SDS011;62796;42.654;23.316;2023-04-25T02:20:54;7.53;;;6.00;;
29196;SDS011;62796;42.654;23.316;2023-04-25T02:23:20;7.25;;;5.57;;
29196;SDS011;62796;42.654;23.316;2023-04-25T02:25:45;7.28;;;6.03;;
29196;SDS011;62796;42.654;23.316;2023-04-25T02:28:11;8.38;;;5.78;;
29196;SDS011;62796;42.654;23.316;2023-04-25T02:30:36;8.43;;;6.13;;
29196;SDS011;62796;42.654;23.316;2023-04-25T02:33:02;7.78;;;6.32;;
29196;SDS011;62796;42.654;23.316;2023-04-25T02:35:27;8.93;;;6.30;;
29196;SDS011;62796;42.654;23.316;2023-04-25T02:37:53;7.32;;;6.10;;
29196;SDS011;62796;42.654;23.316;2023-04-25T02:40:18;9.80;;;6.43;;
29196;SDS011;62796;42.654;23.316;2023-04-25T02:42:44;9.73;;;6.63;;
29196;SDS011;62796;42.654;23.316;2023-04-25T02:45:10;8.32;;;6.50;;
29196;SDS011;62796;42.654;23.316;2023-04-25T02:47:36;8.98;;;7.28;;
29196;SDS011;62796;42.654;23.316;2023-04-25T02:50:02;10.00;;;7.10;;
29196;SDS011;62796;42.654;23.316;2023-04-25T02:52:28;8.00;;;7.18;;
29196;SDS011;62796;42.654;23.316;2023-04-25T02:54:54;10.93;;;7.22;;
29196;SDS011;62796;42.654;23.316;2023-04-25T02:57:19;8.45;;;7.40;;
29196;SDS011;62796;42.654;23.316;2023-04-25T02:59:45;9.20;;;7.47;;
29196;SDS011;62796;42.654;23.316;2023-04-25T03:02:10;11.25;;;7.55;;
29196;SDS011;62796;42.654;23.316;2023-04-25T03:04:36;8.52;;;7.30;;
29196;SDS011;62796;42.654;23.316;2023-04-25T03:07:01;9.77;;;8.25;;
29196;SDS011;62796;42.654;23.316;2023-04-25T03:09:27;10.27;;;8.80;;
29196;SDS011;62796;42.654;23.316;2023-04-25T03:11:52;10.90;;;8.57;;
29196;SDS011;62796;42.654;23.316;2023-04-25T03:14:18;11.43;;;8.10;;
29196;SDS011;62796;42.654;23.316;2023-04-25T03:16:43;12.48;;;9.13;;
29196;SDS011;62796;42.654;23.316;2023-04-25T03:19:09;11.95;;;9.45;;
29196;SDS011;62796;42.654;23.316;2023-04-25T03:21:35;11.60;;;9.13;;
29196;SDS011;62796;42.654;23.316;2023-04-25T03:24:02;10.77;;;9.07;;
29196;SDS011;62796;42.654;23.316;2023-04-25T03:26:28;13.15;;;9.43;;
29196;SDS011;62796;42.654;23.316;2023-04-25T03:28:54;10.52;;;8.60;;
29196;SDS011;62796;42.654;23.316;2023-04-25T03:31:19;11.55;;;8.25;;
29196;SDS011;62796;42.654;23.316;2023-04-25T03:33:45;10.95;;;8.70;;
29196;SDS011;62796;42.654;23.316;2023-04-25T03:36:10;9.27;;;8.30;;
29196;SDS011;62796;42.654;23.316;2023-04-25T03:38:36;12.05;;;8.40;;
29196;SDS011;62796;42.654;23.316;2023-04-25T03:41:01;13.43;;;9.20;;
29196;SDS011;62796;42.654;23.316;2023-04-25T03:43:27;11.23;;;8.48;;
29196;SDS011;62796;42.654;23.316;2023-04-25T03:45:52;12.32;;;8.95;;
29196;SDS011;62796;42.654;23.316;2023-04-25T03:48:18;10.43;;;8.73;;
29196;SDS011;62796;42.654;23.316;2023-04-25T03:50:46;8.75;;;7.70;;
29196;SDS011;62796;42.654;23.316;2023-04-25T03:53:12;11.13;;;8.27;;
29196;SDS011;62796;42.654;23.316;2023-04-25T03:55:37;10.57;;;8.13;;
29196;SDS011;62796;42.654;23.316;2023-04-25T03:58:03;11.05;;;8.98;;
29196;SDS011;62796;42.654;23.316;2023-04-25T04:00:28;10.15;;;8.40;;
29196;SDS011;62796;42.654;23.316;2023-04-25T04:02:53;10.88;;;8.68;;
29196;SDS011;62796;42.654;23.316;2023-04-25T04:05:19;11.18;;;8.60;;
29196;SDS011;62796;42.654;23.316;2023-04-25T04:07:44;11.18;;;7.93;;
29196;SDS011;62796;42.654;23.316;2023-04-25T04:10:10;10.90;;;8.07;;
29196;SDS011;62796;42.654;23.316;2023-04-25T04:12:36;10.95;;;8.07;;
29196;SDS011;62796;42.654;23.316;2023-04-25T04:15:02;15.90;;;10.18;;
29196;SDS011;62796;42.654;23.316;2023-04-25T04:17:29;16.40;;;9.52;;
29196;SDS011;62796;42.654;23.316;2023-04-25T04:19:55;12.73;;;9.20;;
29196;SDS011;62796;42.654;23.316;2023-04-25T04:22:21;11.05;;;8.10;;
29196;SDS011;62796;42.654;23.316;2023-04-25T04:24:47;12.52;;;8.77;;
29196;SDS011;62796;42.654;23.316;2023-04-25T04:27:12;10.65;;;8.90;;
29196;SDS011;62796;42.654;23.316;2023-04-25T04:29:38;10.13;;;8.18;;
29196;SDS011;62796;42.654;23.316;2023-04-25T04:32:04;11.05;;;7.43;;
29196;SDS011;62796;42.654;23.316;2023-04-25T04:34:30;10.68;;;8.45;;
29196;SDS011;62796;42.654;23.316;2023-04-25T04:36:56;10.43;;;7.80;;
29196;SDS011;62796;42.654;23.316;2023-04-25T04:39:21;12.10;;;8.43;;
29196;SDS011;62796;42.654;23.316;2023-04-25T04:41:47;11.85;;;8.13;;
29196;SDS011;62796;42.654;23.316;2023-04-25T04:44:12;12.52;;;8.20;;
29196;SDS011;62796;42.654;23.316;2023-04-25T04:46:39;10.25;;;8.10;;
29196;SDS011;62796;42.654;23.316;2023-04-25T04:49:05;10.40;;;8.00;;
29196;SDS011;62796;42.654;23.316;2023-04-25T04:51:31;12.98;;;8.75;;
29196;SDS011;62796;42.654;23.316;2023-04-25T04:53:56;8.85;;;7.60;;
29196;SDS011;62796;42.654;23.316;2023-04-25T04:56:23;9.75;;;7.68;;
29196;SDS011;62796;42.654;23.316;2023-04-25T04:58:50;10.80;;;7.25;;
29196;SDS011;62796;42.654;23.316;2023-04-25T05:01:16;11.15;;;7.80;;
29196;SDS011;62796;42.654;23.316;2023-04-25T05:03:41;9.32;;;6.93;;
29196;SDS011;62796;42.654;23.316;2023-04-25T05:06:06;11.70;;;8.25;;
29196;SDS011;62796;42.654;23.316;2023-04-25T05:08:33;9.50;;;7.75;;
29196;SDS011;62796;42.654;23.316;2023-04-25T05:10:59;13.10;;;9.13;;
29196;SDS011;62796;42.654;23.316;2023-04-25T05:13:24;11.13;;;8.65;;
29196;SDS011;62796;42.654;23.316;2023-04-25T05:15:50;9.43;;;8.30;;
29196;SDS011;62796;42.654;23.316;2023-04-25T05:18:15;11.68;;;8.63;;
29196;SDS011;62796;42.654;23.316;2023-04-25T05:20:40;11.95;;;8.68;;
29196;SDS011;62796;42.654;23.316;2023-04-25T05:23:06;11.10;;;9.10;;
29196;SDS011;62796;42.654;23.316;2023-04-25T05:25:31;10.30;;;8.20;;
29196;SDS011;62796;42.654;23.316;2023-04-25T05:27:56;12.68;;;9.88;;
29196;SDS011;62796;42.654;23.316;2023-04-25T05:30:23;12.98;;;9.38;;
29196;SDS011;62796;42.654;23.316;2023-04-25T05:32:48;15.07;;;10.75;;
29196;SDS011;62796;42.654;23.316;2023-04-25T05:35:14;14.25;;;10.90;;
29196;SDS011;62796;42.654;23.316;2023-04-25T05:37:39;14.73;;;10.90;;
29196;SDS011;62796;42.654;23.316;2023-04-25T05:40:05;15.27;;;11.63;;
29196;SDS011;62796;42.654;23.316;2023-04-25T05:42:32;14.35;;;11.57;;
29196;SDS011;62796;42.654;23.316;2023-04-25T05:44:57;13.13;;;10.88;;
29196;SDS011;62796;42.654;23.316;2023-04-25T05:47:23;19.63;;;11.48;;
29196;SDS011;62796;42.654;23.316;2023-04-25T05:49:48;14.75;;;10.52;;
29196;SDS011;62796;42.654;23.316;2023-04-25T05:52:13;15.13;;;11.27;;
29196;SDS011;62796;42.654;23.316;2023-04-25T05:54:40;15.60;;;10.98;;
29196;SDS011;62796;42.654;23.316;2023-04-25T05:57:06;12.90;;;10.85;;
29196;SDS011;62796;42.654;23.316;2023-04-25T05:59:31;12.40;;;10.27;;
29196;SDS011;62796;42.654;23.316;2023-04-25T06:01:56;13.55;;;9.90;;
29196;SDS011;62796;42.654;23.316;2023-04-25T06:04:22;13.52;;;10.20;;
29196;SDS011;62796;42.654;23.316;2023-04-25T06:06:47;13.95;;;10.73;;
29196;SDS011;62796;42.654;23.316;2023-04-25T06:09:13;14.13;;;10.65;;
29196;SDS011;62796;42.654;23.316;2023-04-25T06:11:38;12.38;;;9.50;;
29196;SDS011;62796;42.654;23.316;2023-04-25T06:14:03;15.38;;;9.35;;
29196;SDS011;62796;42.654;23.316;2023-04-25T06:16:29;12.30;;;9.70;;
29196;SDS011;62796;42.654;23.316;2023-04-25T06:18:54;14.63;;;9.50;;
29196;SDS011;62796;42.654;23.316;2023-04-25T06:21:20;11.73;;;9.07;;
29196;SDS011;62796;42.654;23.316;2023-04-25T06:23:45;11.70;;;7.85;;
29196;SDS011;62796;42.654;23.316;2023-04-25T06:26:10;9.23;;;7.07;;
29196;SDS011;62796;42.654;23.316;2023-04-25T06:28:36;10.70;;;7.00;;
29196;SDS011;62796;42.654;23.316;2023-04-25T06:31:01;10.98;;;8.18;;
29196;SDS011;62796;42.654;23.316;2023-04-25T06:33:27;11.80;;;8.20;;
29196;SDS011;62796;42.654;23.316;2023-04-25T06:35:52;16.38;;;8.23;;
29196;SDS011;62796;42.654;23.316;2023-04-25T06:38:17;11.30;;;8.43;;
29196;SDS011;62796;42.654;23.316;2023-04-25T06:40:43;12.07;;;8.18;;
29196;SDS011;62796;42.654;23.316;2023-04-25T06:43:08;8.85;;;7.65;;
29196;SDS011;62796;42.654;23.316;2023-04-25T06:45:34;17.60;;;8.15;;
29196;SDS011;62796;42.654;23.316;2023-04-25T06:47:59;31.75;;;8.18;;
29196;SDS011;62796;42.654;23.316;2023-04-25T06:50:25;14.30;;;8.05;;
29196;SDS011;62796;42.654;23.316;2023-04-25T06:52:50;13.27;;;8.68;;
29196;SDS011;62796;42.654;23.316;2023-04-25T06:55:16;14.43;;;8.50;;
29196;SDS011;62796;42.654;23.316;2023-04-25T06:57:41;16.10;;;9.30;;
29196;SDS011;62796;42.654;23.316;2023-04-25T07:00:07;12.52;;;8.45;;
29196;SDS011;62796;42.654;23.316;2023-04-25T07:02:35;14.02;;;9.25;;
29196;SDS011;62796;42.654;23.316;2023-04-25T07:05:01;11.98;;;8.70;;
29196;SDS011;62796;42.654;23.316;2023-04-25T07:07:29;14.63;;;8.65;;
29196;SDS011;62796;42.654;23.316;2023-04-25T07:09:55;9.27;;;7.60;;
29196;SDS011;62796;42.654;23.316;2023-04-25T07:12:20;12.57;;;8.88;;
29196;SDS011;62796;42.654;23.316;2023-04-25T07:14:46;18.90;;;8.65;;
29196;SDS011;62796;42.654;23.316;2023-04-25T07:17:11;13.88;;;8.25;;
29196;SDS011;62796;42.654;23.316;2023-04-25T07:19:37;10.20;;;8.70;;
29196;SDS011;62796;42.654;23.316;2023-04-25T07:22:04;12.65;;;8.05;;
29196;SDS011;62796;42.654;23.316;2023-04-25T07:24:30;11.57;;;8.23;;
29196;SDS011;62796;42.654;23.316;2023-04-25T07:26:56;14.13;;;8.77;;
29196;SDS011;62796;42.654;23.316;2023-04-25T07:29:21;13.82;;;9.15;;
29196;SDS011;62796;42.654;23.316;2023-04-25T07:31:47;14.05;;;8.80;;
29196;SDS011;62796;42.654;23.316;2023-04-25T07:34:12;16.48;;;7.90;;
29196;SDS011;62796;42.654;23.316;2023-04-25T07:36:38;17.15;;;9.27;;
29196;SDS011;62796;42.654;23.316;2023-04-25T07:39:03;14.57;;;7.85;;
29196;SDS011;62796;42.654;23.316;2023-04-25T07:41:29;13.98;;;7.53;;
29196;SDS011;62796;42.654;23.316;2023-04-25T07:43:54;12.20;;;7.03;;
29196;SDS011;62796;42.654;23.316;2023-04-25T07:46:19;12.43;;;7.18;;
29196;SDS011;62796;42.654;23.316;2023-04-25T07:48:45;8.07;;;6.97;;
29196;SDS011;62796;42.654;23.316;2023-04-25T07:51:10;8.77;;;6.43;;
29196;SDS011;62796;42.654;23.316;2023-04-25T07:53:36;12.90;;;7.88;;
29196;SDS011;62796;42.654;23.316;2023-04-25T07:56:02;10.45;;;7.40;;
29196;SDS011;62796;42.654;23.316;2023-04-25T07:58:28;10.90;;;5.90;;
29196;SDS011;62796;42.654;23.316;2023-04-25T08:00:53;6.35;;;5.35;;
29196;SDS011;62796;42.654;23.316;2023-04-25T08:03:19;9.13;;;5.97;;
29196;SDS011;62796;42.654;23.316;2023-04-25T08:05:45;9.57;;;6.25;;
29196;SDS011;62796;42.654;23.316;2023-04-25T08:08:10;11.00;;;5.60;;
29196;SDS011;62796;42.654;23.316;2023-04-25T08:10:36;9.75;;;6.07;;
29196;SDS011;62796;42.654;23.316;2023-04-25T08:13:01;11.07;;;5.72;;
29196;SDS011;62796;42.654;23.316;2023-04-25T08:15:27;9.73;;;5.60;;
29196;SDS011;62796;42.654;23.316;2023-04-25T08:17:53;7.07;;;5.20;;
29196;SDS011;62796;42.654;23.316;2023-04-25T08:20:18;10.68;;;5.57;;
29196;SDS011;62796;42.654;23.316;2023-04-25T08:22:43;6.68;;;4.60;;
29196;SDS011;62796;42.654;23.316;2023-04-25T08:25:09;6.93;;;4.78;;
29196;SDS011;62796;42.654;23.316;2023-04-25T08:27:34;8.98;;;5.00;;
29196;SDS011;62796;42.654;23.316;2023-04-25T08:30:00;11.60;;;5.72;;
29196;SDS011;62796;42.654;23.316;2023-04-25T08:32:27;10.05;;;7.32;;
29196;SDS011;62796;42.654;23.316;2023-04-25T08:34:53;14.23;;;6.25;;
29196;SDS011;62796;42.654;23.316;2023-04-25T08:37:20;16.42;;;7.25;;
29196;SDS011;62796;42.654;23.316;2023-04-25T08:39:46;12.50;;;6.82;;
29196;SDS011;62796;42.654;23.316;2023-04-25T08:42:13;7.15;;;4.22;;
29196;SDS011;62796;42.654;23.316;2023-04-25T08:44:39;13.88;;;5.35;;
29196;SDS011;62796;42.654;23.316;2023-04-25T08:47:05;12.57;;;6.22;;
29196;SDS011;62796;42.654;23.316;2023-04-25T08:49:34;8.15;;;4.50;;
29196;SDS011;62796;42.654;23.316;2023-04-25T08:52:00;11.02;;;4.82;;
29196;SDS011;62796;42.654;23.316;2023-04-25T08:54:28;12.55;;;5.03;;
29196;SDS011;62796;42.654;23.316;2023-04-25T08:56:56;10.35;;;5.22;;
29196;SDS011;62796;42.654;23.316;2023-04-25T08:59:23;10.65;;;5.88;;
29196;SDS011;62796;42.654;23.316;2023-04-25T09:01:49;12.25;;;6.60;;
29196;SDS011;62796;42.654;23.316;2023-04-25T09:04:16;15.65;;;7.00;;
29196;SDS011;62796;42.654;23.316;2023-04-25T09:06:42;10.52;;;6.38;;
29196;SDS011;62796;42.654;23.316;2023-04-25T09:09:08;11.82;;;6.72;;
29196;SDS011;62796;42.654;23.316;2023-04-25T09:11:36;11.50;;;6.97;;
29196;SDS011;62796;42.654;23.316;2023-04-25T09:14:12;11.82;;;6.90;;
29196;SDS011;62796;42.654;23.316;2023-04-25T09:19:23;10.95;;;6.50;;
29196;SDS011;62796;42.654;23.316;2023-04-25T09:21:50;7.22;;;4.40;;
29196;SDS011;62796;42.654;23.316;2023-04-25T09:24:16;6.38;;;3.78;;
29196;SDS011;62796;42.654;23.316;2023-04-25T09:26:44;7.05;;;3.78;;
29196;SDS011;62796;42.654;23.316;2023-04-25T09:29:09;9.95;;;5.10;;
29196;SDS011;62796;42.654;23.316;2023-04-25T09:31:35;10.20;;;6.60;;
29196;SDS011;62796;42.654;23.316;2023-04-25T09:34:01;8.32;;;5.20;;
29196;SDS011;62796;42.654;23.316;2023-04-25T09:36:27;8.57;;;5.95;;
29196;SDS011;62796;42.654;23.316;2023-04-25T09:38:53;13.57;;;7.22;;
29196;SDS011;62796;42.654;23.316;2023-04-25T09:41:23;12.15;;;6.97;;
29196;SDS011;62796;42.654;23.316;2023-04-25T09:43:49;9.25;;;6.00;;
29196;SDS011;62796;42.654;23.316;2023-04-25T09:46:15;9.50;;;5.68;;
29196;SDS011;62796;42.654;23.316;2023-04-25T09:48:46;11.32;;;7.15;;
29196;SDS011;62796;42.654;23.316;2023-04-25T09:51:13;12.52;;;6.65;;
29196;SDS011;62796;42.654;23.316;2023-04-25T09:53:43;11.65;;;6.32;;
29196;SDS011;62796;42.654;23.316;2023-04-25T09:56:11;9.18;;;4.97;;
29196;SDS011;62796;42.654;23.316;2023-04-25T09:58:38;6.80;;;4.97;;
29196;SDS011;62796;42.654;23.316;2023-04-25T10:01:06;4.78;;;4.18;;
29196;SDS011;62796;42.654;23.316;2023-04-25T10:03:34;6.22;;;4.47;;
29196;SDS011;62796;42.654;23.316;2023-04-25T10:06:01;11.95;;;5.20;;
29196;SDS011;62796;42.654;23.316;2023-04-25T10:08:33;9.65;;;4.82;;
29196;SDS011;62796;42.654;23.316;2023-04-25T10:11:01;12.00;;;5.15;;
29196;SDS011;62796;42.654;23.316;2023-04-25T10:13:31;13.23;;;4.40;;
29196;SDS011;62796;42.654;23.316;2023-04-25T10:15:58;7.78;;;1.98;;
29196;SDS011;62796;42.654;23.316;2023-04-25T10:18:25;6.63;;;1.40;;
29196;SDS011;62796;42.654;23.316;2023-04-25T10:21:01;2.15;;;1.30;;
29196;SDS011;62796;42.654;23.316;2023-04-25T10:23:30;1.95;;;0.95;;
29196;SDS011;62796;42.654;23.316;2023-04-25T10:25:57;2.92;;;1.15;;
29196;SDS011;62796;42.654;23.316;2023-04-25T10:28:23;1.42;;;1.33;;
29196;SDS011;62796;42.654;23.316;2023-04-25T10:31:02;7.53;;;1.77;;
29196;SDS011;62796;42.654;23.316;2023-04-25T10:33:32;3.85;;;1.95;;
29196;SDS011;62796;42.654;23.316;2023-04-25T10:36:07;5.40;;;2.42;;
29196;SDS011;62796;42.654;23.316;2023-04-25T10:38:37;5.80;;;1.13;;
29196;SDS011;62796;42.654;23.316;2023-04-25T10:41:03;6.43;;;2.15;;
29196;SDS011;62796;42.654;23.316;2023-04-25T10:43:34;5.85;;;1.60;;
29196;SDS011;62796;42.654;23.316;2023-04-25T10:46:00;6.05;;;1.40;;
29196;SDS011;62796;42.654;23.316;2023-04-25T10:48:26;5.80;;;1.67;;
29196;SDS011;62796;42.654;23.316;2023-04-25T10:51:11;6.25;;;1.92;;
29196;SDS011;62796;42.654;23.316;2023-04-25T10:53:40;6.13;;;2.45;;
29196;SDS011;62796;42.654;23.316;2023-04-25T10:56:09;7.63;;;2.67;;
29196;SDS011;62796;42.654;23.316;2023-04-25T10:58:36;6.72;;;2.33;;
29196;SDS011;62796;42.654;23.316;2023-04-25T11:01:06;6.00;;;2.22;;
29196;SDS011;62796;42.654;23.316;2023-04-25T11:03:31;4.07;;;2.15;;
29196;SDS011;62796;42.654;23.316;2023-04-25T11:05:57;13.55;;;3.63;;
29196;SDS011;62796;42.654;23.316;2023-04-25T11:08:42;6.85;;;3.55;;
29196;SDS011;62796;42.654;23.316;2023-04-25T11:11:13;8.05;;;1.45;;
29196;SDS011;62796;42.654;23.316;2023-04-25T11:13:39;6.13;;;1.40;;
29196;SDS011;62796;42.654;23.316;2023-04-25T11:16:07;4.53;;;1.70;;
29196;SDS011;62796;42.654;23.316;2023-04-25T11:18:32;7.00;;;1.30;;
29196;SDS011;62796;42.654;23.316;2023-04-25T11:20:59;3.60;;;1.38;;
29196;SDS011;62796;42.654;23.316;2023-04-25T11:23:25;8.02;;;2.35;;
29196;SDS011;62796;42.654;23.316;2023-04-25T11:25:51;4.15;;;2.03;;
29196;SDS011;62796;42.654;23.316;2023-04-25T11:28:20;5.82;;;1.55;;
29196;SDS011;62796;42.654;23.316;2023-04-25T11:30:50;6.35;;;1.88;;
29196;SDS011;62796;42.654;23.316;2023-04-25T11:33:16;6.68;;;2.10;;
29196;SDS011;62796;42.654;23.316;2023-04-25T11:35:42;3.95;;;1.77;;
29196;SDS011;62796;42.654;23.316;2023-04-25T11:38:07;12.23;;;2.60;;
29196;SDS011;62796;42.654;23.316;2023-04-25T11:40:33;5.78;;;1.50;;
29196;SDS011;62796;42.654;23.316;2023-04-25T11:43:00;3.92;;;1.60;;
29196;SDS011;62796;42.654;23.316;2023-04-25T11:45:26;3.20;;;1.17;;
29196;SDS011;62796;42.654;23.316;2023-04-25T11:47:51;3.20;;;1.08;;
29196;SDS011;62796;42.654;23.316;2023-04-25T11:50:17;5.82;;;1.20;;
29196;SDS011;62796;42.654;23.316;2023-04-25T11:52:44;2.85;;;1.25;;
29196;SDS011;62796;42.654;23.316;2023-04-25T11:55:18;2.90;;;1.38;;
29196;SDS011;62796;42.654;23.316;2023-04-25T11:57:45;5.03;;;1.05;;
29196;SDS011;62796;42.654;23.316;2023-04-25T12:02:40;5.03;;;1.50;;
29196;SDS011;62796;42.654;23.316;2023-04-25T12:05:07;2.70;;;1.20;;
29196;SDS011;62796;42.654;23.316;2023-04-25T12:07:33;2.03;;;1.10;;
29196;SDS011;62796;42.654;23.316;2023-04-25T12:09:59;2.08;;;1.08;;
29196;SDS011;62796;42.654;23.316;2023-04-25T12:12:32;2.53;;;1.08;;
29196;SDS011;62796;42.654;23.316;2023-04-25T12:15:07;1.63;;;0.90;;
29196;SDS011;62796;42.654;23.316;2023-04-25T12:17:34;2.65;;;1.02;;
29196;SDS011;62796;42.654;23.316;2023-04-25T12:20:00;2.08;;;1.20;;
29196;SDS011;62796;42.654;23.316;2023-04-25T12:22:32;3.58;;;1.20;;
29196;SDS011;62796;42.654;23.316;2023-04-25T12:24:58;1.70;;;1.10;;
29196;SDS011;62796;42.654;23.316;2023-04-25T12:27:23;3.42;;;1.17;;
29196;SDS011;62796;42.654;23.316;2023-04-25T12:29:52;1.10;;;1.00;;
29196;SDS011;62796;42.654;23.316;2023-04-25T12:32:18;6.32;;;1.00;;
29196;SDS011;62796;42.654;23.316;2023-04-25T12:34:44;2.40;;;1.23;;
29196;SDS011;62796;42.654;23.316;2023-04-25T12:37:10;3.15;;;1.38;;
29196;SDS011;62796;42.654;23.316;2023-04-25T12:39:36;7.38;;;1.30;;
29196;SDS011;62796;42.654;23.316;2023-04-25T12:42:01;3.22;;;1.60;;
29196;SDS011;62796;42.654;23.316;2023-04-25T12:44:28;5.72;;;1.05;;
29196;SDS011;62796;42.654;23.316;2023-04-25T12:46:53;2.13;;;0.98;;
29196;SDS011;62796;42.654;23.316;2023-04-25T12:49:19;3.15;;;1.42;;
29196;SDS011;62796;42.654;23.316;2023-04-25T12:51:45;2.97;;;1.50;;
29196;SDS011;62796;42.654;23.316;2023-04-25T12:54:10;1.42;;;1.10;;
29196;SDS011;62796;42.654;23.316;2023-04-25T12:56:36;3.47;;;1.90;;
29196;SDS011;62796;42.654;23.316;2023-04-25T12:59:01;2.85;;;1.23;;
29196;SDS011;62796;42.654;23.316;2023-04-25T13:01:30;4.70;;;1.70;;
29196;SDS011;62796;42.654;23.316;2023-04-25T13:03:56;5.93;;;2.17;;
29196;SDS011;62796;42.654;23.316;2023-04-25T13:06:22;2.03;;;1.42;;
29196;SDS011;62796;42.654;23.316;2023-04-25T13:08:47;4.05;;;1.70;;
29196;SDS011;62796;42.654;23.316;2023-04-25T13:11:13;3.95;;;2.03;;
29196;SDS011;62796;42.654;23.316;2023-04-25T13:13:42;4.72;;;1.83;;
29196;SDS011;62796;42.654;23.316;2023-04-25T13:16:08;2.30;;;1.52;;
29196;SDS011;62796;42.654;23.316;2023-04-25T13:18:33;6.75;;;2.60;;
29196;SDS011;62796;42.654;23.316;2023-04-25T13:20:59;4.28;;;2.00;;
29196;SDS011;62796;42.654;23.316;2023-04-25T13:23:25;2.67;;;1.63;;
29196;SDS011;62796;42.654;23.316;2023-04-25T13:25:52;5.03;;;2.65;;
29196;SDS011;62796;42.654;23.316;2023-04-25T13:28:18;4.30;;;2.35;;
29196;SDS011;62796;42.654;23.316;2023-04-25T13:30:43;7.03;;;2.47;;
29196;SDS011;62796;42.654;23.316;2023-04-25T13:33:09;5.30;;;2.78;;
29196;SDS011;62796;42.654;23.316;2023-04-25T13:35:35;3.83;;;2.35;;
29196;SDS011;62796;42.654;23.316;2023-04-25T13:38:02;6.07;;;1.88;;
29196;SDS011;62796;42.654;23.316;2023-04-25T13:40:27;6.50;;;2.83;;
29196;SDS011;62796;42.654;23.316;2023-04-25T13:42:53;4.72;;;2.30;;
29196;SDS011;62796;42.654;23.316;2023-04-25T13:45:19;3.60;;;2.55;;
29196;SDS011;62796;42.654;23.316;2023-04-25T13:47:45;2.90;;;2.00;;
29196;SDS011;62796;42.654;23.316;2023-04-25T13:50:10;3.22;;;1.60;;
29196;SDS011;62796;42.654;23.316;2023-04-25T13:52:36;3.17;;;1.55;;
29196;SDS011;62796;42.654;23.316;2023-04-25T13:55:01;3.45;;;2.08;;
29196;SDS011;62796;42.654;23.316;2023-04-25T13:57:28;3.55;;;0.95;;
29196;SDS011;62796;42.654;23.316;2023-04-25T13:59:55;2.83;;;1.83;;
29196;SDS011;62796;42.654;23.316;2023-04-25T14:02:20;9.15;;;3.10;;
29196;SDS011;62796;42.654;23.316;2023-04-25T14:04:46;8.52;;;3.47;;
29196;SDS011;62796;42.654;23.316;2023-04-25T14:07:12;3.70;;;2.80;;
29196;SDS011;62796;42.654;23.316;2023-04-25T14:09:37;6.07;;;2.60;;
29196;SDS011;62796;42.654;23.316;2023-04-25T14:12:03;4.97;;;1.73;;
29196;SDS011;62796;42.654;23.316;2023-04-25T14:14:28;2.50;;;2.10;;
29196;SDS011;62796;42.654;23.316;2023-04-25T14:16:54;3.80;;;1.88;;
29196;SDS011;62796;42.654;23.316;2023-04-25T14:19:21;4.15;;;1.98;;
29196;SDS011;62796;42.654;23.316;2023-04-25T14:21:46;3.80;;;2.03;;
29196;SDS011;62796;42.654;23.316;2023-04-25T14:24:12;2.92;;;1.50;;
29196;SDS011;62796;42.654;23.316;2023-04-25T14:26:38;1.95;;;1.63;;
29196;SDS011;62796;42.654;23.316;2023-04-25T14:29:05;2.65;;;1.98;;